Time;durP1;ratioP1;P1;durP2;ratioP2;P2;SDS_P1;SDS_P2;PMS_P1;PMS_P2;Temp;Humidity;BMP_temperature;BMP_pressure;BME280_temperature;BME280_humidity;BME280_pressure;Samples;Min_cycle;Max_cycle;Signal;HPM_P1;HPM_P2
2024/01/02 00:00:01;;;;;;;16.02;3.40;;;5.50;99.90;;;;;;5105832;28;20050;-63
2024/01/02 00:02:27;;;;;;;15.05;3.80;;;5.50;99.90;;;;;;5104283;28;20722;-64
2024/01/02 00:04:52;;;;;;;19.05;3.47;;;5.50;99.90;;;;;;5104928;28;20117;-63
2024/01/02 00:07:18;;;;;;;13.32;3.25;;;5.50;99.90;;;;;;5105618;28;20083;-66
2024/01/02 00:09:44;;;;;;;18.02;3.97;;;5.50;99.90;;;;;;5126501;27;20080;-67
2024/01/02 00:12:09;;;;;;;19.20;3.83;;;6.10;99.90;;;;;;5084888;28;20430;-66
2024/01/02 00:14:35;;;;;;;14.88;3.65;;;5.50;99.90;;;;;;5085880;28;20054;-67
2024/01/02 00:17:01;;;;;;;16.17;3.40;;;5.50;99.90;;;;;;5134103;27;20078;-68
2024/01/02 00:19:26;;;;;;;15.52;3.67;;;5.50;99.90;;;;;;5105458;28;20276;-67
2024/01/02 00:21:53;;;;;;;18.52;4.30;;;5.50;99.90;;;;;;5104288;28;20069;-66
2024/01/02 00:24:19;;;;;;;12.43;3.65;;;5.50;99.90;;;;;;5106236;28;20059;-67
2024/01/02 00:26:45;;;;;;;16.42;2.95;;;5.50;99.90;;;;;;5106408;28;20046;-66
2024/01/02 00:29:10;;;;;;;22.17;3.05;;;5.60;99.90;;;;;;5103329;28;20484;-67
2024/01/02 00:31:36;;;;;;;16.95;3.45;;;5.50;99.90;;;;;;5087130;28;20066;-65
2024/01/02 00:34:02;;;;;;;16.67;3.33;;;5.50;99.90;;;;;;5102988;28;20189;-66
2024/01/02 00:36:27;;;;;;;10.50;2.97;;;5.50;99.90;;;;;;5105545;28;20044;-66
2024/01/02 00:38:53;;;;;;;9.75;3.00;;;5.50;99.90;;;;;;5100945;28;20044;-67
2024/01/02 00:41:19;;;;;;;11.93;3.28;;;5.50;99.90;;;;;;5102184;28;20495;-67
2024/01/02 00:43:44;;;;;;;14.23;3.05;;;5.50;99.90;;;;;;5128819;27;20043;-67
2024/01/02 00:46:10;;;;;;;14.52;3.28;;;5.50;99.90;;;;;;5099690;28;20044;-68
2024/01/02 00:48:36;;;;;;;14.32;3.45;;;5.50;99.90;;;;;;5103614;28;20048;-67
2024/01/02 00:51:02;;;;;;;13.95;2.85;;;5.60;99.90;;;;;;5101386;28;20430;-69
2024/01/02 00:53:28;;;;;;;12.63;2.22;;;5.50;99.90;;;;;;5102993;28;20051;-66
2024/01/02 00:55:53;;;;;;;11.88;2.65;;;5.50;99.90;;;;;;5102823;27;20538;-66
2024/01/02 00:58:19;;;;;;;12.23;2.70;;;5.50;99.90;;;;;;5102099;28;21115;-67
2024/01/02 01:00:45;;;;;;;14.02;2.58;;;5.60;99.90;;;;;;5096185;28;20039;-68
2024/01/02 01:03:11;;;;;;;13.45;2.88;;;5.50;99.90;;;;;;5100246;28;20054;-66
2024/01/02 01:05:37;;;;;;;11.18;2.70;;;5.60;99.90;;;;;;5086244;28;20043;-67
2024/01/02 01:08:04;;;;;;;19.35;3.00;;;5.60;99.90;;;;;;5103760;28;20413;-66
2024/01/02 01:10:30;;;;;;;13.15;2.95;;;5.60;99.90;;;;;;5103136;28;20157;-67
2024/01/02 01:12:55;;;;;;;15.02;2.65;;;5.70;99.90;;;;;;5102064;28;20622;-66
2024/01/02 01:15:21;;;;;;;17.48;3.53;;;5.90;99.90;;;;;;5127438;27;20067;-67
2024/01/02 01:17:47;;;;;;;15.85;3.58;;;5.70;99.90;;;;;;5085900;28;20050;-66
2024/01/02 01:20:12;;;;;;;15.18;3.22;;;5.70;99.90;;;;;;5104028;28;20446;-66
2024/01/02 01:22:39;;;;;;;13.32;2.60;;;5.70;99.90;;;;;;5084828;28;20048;-66
2024/01/02 01:25:05;;;;;;;13.32;2.80;;;5.70;99.90;;;;;;5099748;28;20040;-67
2024/01/02 01:27:31;;;;;;;11.95;2.25;;;5.70;99.90;;;;;;5104584;28;20028;-67
2024/01/02 01:29:57;;;;;;;14.55;2.63;;;5.70;99.90;;;;;;5133021;27;20104;-67
2024/01/02 01:32:23;;;;;;;16.25;2.42;;;5.70;99.90;;;;;;5103021;28;20853;-66
2024/01/02 01:34:48;;;;;;;14.98;2.75;;;5.80;99.90;;;;;;5101786;28;20126;-66
2024/01/02 01:37:14;;;;;;;13.23;2.72;;;5.80;99.90;;;;;;5102447;28;20047;-67
2024/01/02 01:39:40;;;;;;;14.00;2.97;;;5.80;99.90;;;;;;5084870;28;20035;-66
2024/01/02 01:42:06;;;;;;;14.43;2.60;;;5.80;99.90;;;;;;5102652;28;20130;-66
2024/01/02 01:44:32;;;;;;;11.95;2.67;;;5.80;99.90;;;;;;5102888;28;20039;-67
2024/01/02 01:46:58;;;;;;;12.30;3.28;;;5.80;99.90;;;;;;5100201;28;20043;-66
2024/01/02 01:49:23;;;;;;;13.50;2.30;;;5.80;99.90;;;;;;5103530;28;20661;-67
2024/01/02 01:51:51;;;;;;;11.15;2.20;;;5.80;99.90;;;;;;5101670;28;20568;-66
2024/01/02 01:54:17;;;;;;;18.63;2.75;;;5.80;99.90;;;;;;5102625;28;20051;-67
2024/01/02 01:56:43;;;;;;;9.55;2.67;;;5.90;99.90;;;;;;5102015;28;20039;-67
2024/01/02 01:59:12;;;;;;;14.15;2.40;;;5.90;99.90;;;;;;5101225;28;20105;-67
2024/01/02 02:01:39;;;;;;;9.45;2.45;;;5.90;99.90;;;;;;5121801;27;20551;-67
2024/01/02 02:04:05;;;;;;;14.70;2.65;;;5.90;99.90;;;;;;5101720;28;20059;-67
2024/01/02 02:06:31;;;;;;;12.95;2.55;;;5.90;99.90;;;;;;5100203;28;20112;-66
2024/01/02 02:08:57;;;;;;;11.65;2.28;;;5.90;99.90;;;;;;5084660;28;20039;-66
2024/01/02 02:11:23;;;;;;;19.42;2.72;;;5.90;99.90;;;;;;5084162;28;20145;-67
2024/01/02 02:13:50;;;;;;;12.55;2.47;;;5.90;99.90;;;;;;5100973;28;20126;-67
2024/01/02 02:16:16;;;;;;;13.10;2.60;;;5.90;99.90;;;;;;5083652;28;20047;-67
2024/01/02 02:18:42;;;;;;;12.13;2.30;;;5.90;99.90;;;;;;5084619;28;20046;-67
2024/01/02 02:21:08;;;;;;;13.93;2.85;;;6.00;99.90;;;;;;5126606;27;20055;-67
2024/01/02 02:23:33;;;;;;;13.00;2.88;;;6.00;99.90;;;;;;5083817;28;20507;-67
2024/01/02 02:25:59;;;;;;;16.25;3.03;;;6.00;99.90;;;;;;5101464;28;20044;-66
2024/01/02 02:28:25;;;;;;;10.95;3.17;;;6.60;99.90;;;;;;5099527;27;20126;-67
2024/01/02 02:30:51;;;;;;;15.48;2.92;;;6.00;99.90;;;;;;5099962;28;20044;-68
2024/01/02 02:33:17;;;;;;;17.15;3.00;;;6.00;99.90;;;;;;5083852;28;20431;-67
2024/01/02 02:35:42;;;;;;;12.65;2.95;;;6.30;99.90;;;;;;5101567;28;20214;-67
2024/01/02 02:38:08;;;;;;;12.00;2.80;;;6.10;99.90;;;;;;5099776;28;20051;-67
2024/01/02 02:40:35;;;;;;;15.10;3.38;;;6.60;99.90;;;;;;5099498;28;20043;-67
2024/01/02 02:43:01;;;;;;;12.68;3.38;;;6.10;99.90;;;;;;5130155;27;20074;-67
2024/01/02 02:45:27;;;;;;;11.13;3.88;;;6.10;99.90;;;;;;5123662;27;20107;-67
2024/01/02 02:47:53;;;;;;;13.35;3.50;;;6.10;99.90;;;;;;5102324;28;20047;-66
2024/01/02 02:50:19;;;;;;;13.30;4.05;;;6.20;99.90;;;;;;5084998;28;20074;-68
2024/01/02 02:52:45;;;;;;;11.20;3.60;;;6.20;99.90;;;;;;5112502;27;20214;-67
2024/01/02 02:55:11;;;;;;;11.63;4.10;;;6.20;99.90;;;;;;5084656;28;20075;-68
2024/01/02 02:57:36;;;;;;;14.90;4.60;;;6.20;99.90;;;;;;5123898;27;20069;-68
2024/01/02 03:00:04;;;;;;;14.10;4.20;;;6.20;99.90;;;;;;5100225;28;20043;-65
2024/01/02 03:02:29;;;;;;;11.32;4.70;;;6.20;99.90;;;;;;5100403;28;20075;-67
2024/01/02 03:04:55;;;;;;;15.45;4.85;;;6.30;99.90;;;;;;5084854;28;20078;-67
2024/01/02 03:07:21;;;;;;;12.52;4.25;;;6.20;99.90;;;;;;5102011;28;20035;-68
2024/01/02 03:09:47;;;;;;;18.15;4.47;;;6.20;99.90;;;;;;5102043;28;20032;-67
2024/01/02 03:12:13;;;;;;;14.77;4.95;;;6.30;99.90;;;;;;5100599;28;20048;-68
2024/01/02 03:14:39;;;;;;;12.52;4.07;;;6.30;99.90;;;;;;5101146;28;20047;-66
2024/01/02 03:17:04;;;;;;;14.98;4.63;;;6.40;99.90;;;;;;5102703;28;20059;-66
2024/01/02 03:19:30;;;;;;;12.45;3.92;;;6.90;99.90;;;;;;5102519;28;21561;-67
2024/01/02 03:21:56;;;;;;;11.18;4.53;;;6.30;99.90;;;;;;5100402;28;20067;-65
2024/01/02 03:24:22;;;;;;;14.38;5.90;;;6.30;99.90;;;;;;5103943;28;20151;-68
2024/01/02 03:26:48;;;;;;;16.17;4.53;;;6.30;99.90;;;;;;5102774;28;20038;-66
2024/01/02 03:29:16;;;;;;;9.98;4.30;;;6.30;99.90;;;;;;5086668;28;20055;-65
2024/01/02 03:31:42;;;;;;;13.10;4.38;;;6.30;99.90;;;;;;5104873;28;20036;-64
2024/01/02 03:34:08;;;;;;;11.63;4.22;;;6.30;99.90;;;;;;5104519;28;20050;-65
2024/01/02 03:36:34;;;;;;;14.68;4.18;;;6.30;99.90;;;;;;5087229;28;20039;-64
2024/01/02 03:39:00;;;;;;;18.65;5.03;;;6.30;99.90;;;;;;5104956;27;20050;-65
2024/01/02 03:41:26;;;;;;;9.82;3.92;;;6.80;99.90;;;;;;5103841;28;20217;-65
2024/01/02 03:43:51;;;;;;;13.70;3.92;;;6.30;99.90;;;;;;5104970;28;20047;-64
2024/01/02 03:46:17;;;;;;;16.40;4.68;;;6.30;99.90;;;;;;5089552;28;20043;-65
2024/01/02 03:48:43;;;;;;;10.85;3.78;;;6.30;99.90;;;;;;5107119;28;20127;-65
2024/01/02 03:51:12;;;;;;;14.02;4.13;;;6.20;99.90;;;;;;5098802;28;20177;-65
2024/01/02 03:53:38;;;;;;;7.47;3.67;;;6.30;99.90;;;;;;5106708;28;20709;-65
2024/01/02 03:56:04;;;;;;;11.35;3.60;;;6.20;99.90;;;;;;5106589;28;20043;-66
2024/01/02 03:58:30;;;;;;;16.58;3.80;;;6.30;99.90;;;;;;5089107;28;20054;-65
2024/01/02 04:00:57;;;;;;;14.48;3.50;;;6.20;99.90;;;;;;5105132;27;20642;-65
2024/01/02 04:03:23;;;;;;;13.63;3.45;;;6.20;99.90;;;;;;5101858;28;20435;-66
2024/01/02 04:05:49;;;;;;;9.50;3.85;;;6.90;99.90;;;;;;5129586;27;20073;-66
2024/01/02 04:08:15;;;;;;;9.60;3.42;;;6.30;99.90;;;;;;5087256;28;20104;-65
2024/01/02 04:10:42;;;;;;;14.32;4.72;;;6.30;99.90;;;;;;5103848;28;20043;-65
2024/01/02 04:13:09;;;;;;;13.10;3.60;;;6.20;99.90;;;;;;5101946;28;20082;-65
2024/01/02 04:15:35;;;;;;;12.30;3.50;;;6.30;99.90;;;;;;5104853;28;20132;-66
2024/01/02 04:18:01;;;;;;;12.93;4.13;;;6.50;99.90;;;;;;5083814;28;20048;-64
2024/01/02 04:20:27;;;;;;;12.30;3.92;;;6.20;99.90;;;;;;5103340;28;20492;-67
2024/01/02 04:22:54;;;;;;;9.55;3.40;;;6.20;99.90;;;;;;5086281;28;20078;-65
2024/01/02 04:25:23;;;;;;;12.93;3.97;;;6.30;99.90;;;;;;5104488;28;20077;-65
2024/01/02 04:27:54;;;;;;;11.73;4.03;;;6.20;99.90;;;;;;5104304;28;20044;-65
2024/01/02 04:30:23;;;;;;;11.40;3.88;;;6.30;99.90;;;;;;5103494;28;20131;-65
2024/01/02 04:32:49;;;;;;;16.70;4.50;;;6.30;99.90;;;;;;5104635;28;20044;-65
2024/01/02 04:35:15;;;;;;;11.82;4.00;;;6.20;99.90;;;;;;5133669;27;20104;-65
2024/01/02 04:37:41;;;;;;;12.13;3.92;;;6.20;99.90;;;;;;5131402;27;20035;-65
2024/01/02 04:40:10;;;;;;;10.20;4.13;;;6.20;99.90;;;;;;5103980;28;20028;-65
2024/01/02 04:42:37;;;;;;;9.95;3.53;;;6.30;99.90;;;;;;5086357;28;20486;-66
2024/01/02 04:45:03;;;;;;;14.80;4.43;;;6.30;99.90;;;;;;5129312;27;20043;-66
2024/01/02 04:47:29;;;;;;;9.40;3.42;;;6.30;99.90;;;;;;5105788;28;20130;-66
2024/01/02 04:49:55;;;;;;;8.18;3.60;;;6.30;99.90;;;;;;5103640;28;20531;-67
2024/01/02 04:52:25;;;;;;;12.55;3.58;;;6.30;99.90;;;;;;5103434;28;20051;-66
2024/01/02 04:54:51;;;;;;;8.75;3.22;;;6.30;99.90;;;;;;5086355;28;20043;-65
2024/01/02 04:57:17;;;;;;;11.88;3.38;;;6.30;99.90;;;;;;5129450;27;20047;-66
2024/01/02 04:59:43;;;;;;;9.82;2.67;;;6.20;99.90;;;;;;5105192;28;20065;-66
2024/01/02 05:02:10;;;;;;;10.40;2.75;;;6.30;99.90;;;;;;5100964;27;20879;-66
2024/01/02 05:04:36;;;;;;;8.45;2.92;;;6.30;99.90;;;;;;5104112;28;20408;-66
2024/01/02 05:07:02;;;;;;;7.55;2.72;;;6.30;99.90;;;;;;5103121;28;20023;-66
2024/01/02 05:09:28;;;;;;;6.07;2.10;;;6.30;99.90;;;;;;5103521;28;20051;-66
2024/01/02 05:11:54;;;;;;;7.72;2.05;;;6.30;99.90;;;;;;5103387;28;20385;-66
2024/01/02 05:14:22;;;;;;;7.47;2.40;;;6.80;99.90;;;;;;5103272;28;20039;-67
2024/01/02 05:16:49;;;;;;;9.35;2.30;;;6.30;99.90;;;;;;5103668;28;20138;-66
2024/01/02 05:19:15;;;;;;;9.40;1.90;;;6.30;99.90;;;;;;5104530;27;20040;-66
2024/01/02 05:21:40;;;;;;;5.85;1.90;;;6.30;99.90;;;;;;5103765;28;20039;-66
2024/01/02 05:24:06;;;;;;;8.30;2.35;;;6.30;99.90;;;;;;5103932;28;20036;-67
2024/01/02 05:26:32;;;;;;;9.80;2.58;;;6.30;99.90;;;;;;5103768;28;20122;-66
2024/01/02 05:28:58;;;;;;;7.55;2.08;;;6.30;99.90;;;;;;5103184;28;20043;-66
2024/01/02 05:31:23;;;;;;;4.97;2.00;;;6.80;99.90;;;;;;5102312;28;20538;-66
2024/01/02 05:33:49;;;;;;;7.75;2.00;;;6.30;99.90;;;;;;5104694;28;20072;-66
2024/01/02 05:36:15;;;;;;;5.93;2.03;;;6.30;99.90;;;;;;5104368;28;20046;-66
2024/01/02 05:38:40;;;;;;;9.90;2.40;;;6.30;99.90;;;;;;5104724;28;20069;-66
2024/01/02 05:41:09;;;;;;;6.15;2.03;;;6.30;99.90;;;;;;5096977;28;20684;-67
2024/01/02 05:43:35;;;;;;;4.47;1.65;;;6.30;99.90;;;;;;5095390;28;20043;-66
2024/01/02 05:46:00;;;;;;;7.38;1.90;;;6.30;99.90;;;;;;5103424;28;20051;-67
2024/01/02 05:48:26;;;;;;;4.93;1.83;;;6.40;99.90;;;;;;5098011;28;20054;-66
2024/01/02 05:50:52;;;;;;;9.80;1.85;;;6.30;99.90;;;;;;5104291;27;20039;-66
2024/01/02 05:53:17;;;;;;;5.72;1.73;;;6.40;99.90;;;;;;5102016;28;20486;-66
2024/01/02 05:55:43;;;;;;;5.00;1.80;;;6.30;99.90;;;;;;5104465;28;20040;-66
2024/01/02 05:58:09;;;;;;;5.43;1.75;;;6.30;99.90;;;;;;5102828;28;20054;-66
2024/01/02 06:00:35;;;;;;;5.10;1.60;;;6.30;99.90;;;;;;5103880;28;20035;-66
2024/01/02 06:03:00;;;;;;;4.22;1.70;;;6.30;99.90;;;;;;5101351;27;20075;-66
2024/01/02 06:05:26;;;;;;;4.90;1.42;;;6.30;99.90;;;;;;5102463;28;20831;-66
2024/01/02 06:07:52;;;;;;;5.32;1.55;;;6.30;99.90;;;;;;5084779;28;20062;-67
2024/01/02 06:10:18;;;;;;;4.22;1.42;;;6.80;99.90;;;;;;5101980;28;20047;-66
2024/01/02 06:12:43;;;;;;;5.25;1.75;;;6.30;99.90;;;;;;5102043;28;20063;-68
2024/01/02 06:15:09;;;;;;;4.10;1.50;;;6.30;99.90;;;;;;5078049;28;20071;-67
2024/01/02 06:17:35;;;;;;;4.25;1.50;;;6.30;99.90;;;;;;5095750;28;20710;-67
2024/01/02 06:20:02;;;;;;;4.05;1.40;;;6.30;99.90;;;;;;5095561;28;20054;-65
2024/01/02 06:22:28;;;;;;;5.30;1.30;;;6.30;99.90;;;;;;5124774;27;20142;-66
2024/01/02 06:24:54;;;;;;;2.80;1.10;;;6.30;99.90;;;;;;5127732;27;20142;-66
2024/01/02 06:27:19;;;;;;;2.72;1.17;;;6.40;99.90;;;;;;5086649;28;20047;-66
2024/01/02 06:29:45;;;;;;;5.22;1.45;;;6.90;99.90;;;;;;5106483;27;20051;-66
2024/01/02 06:32:11;;;;;;;5.70;1.23;;;6.30;99.90;;;;;;5096614;27;20072;-66
2024/01/02 06:34:36;;;;;;;2.65;1.20;;;6.40;99.90;;;;;;5079346;28;20061;-66
2024/01/02 06:37:02;;;;;;;1.52;0.90;;;6.30;99.90;;;;;;5097604;28;20063;-65
2024/01/02 06:39:28;;;;;;;2.00;0.80;;;6.30;99.90;;;;;;5096802;28;20048;-65
2024/01/02 06:41:54;;;;;;;2.30;1.05;;;6.30;99.90;;;;;;5094461;28;20052;-65
2024/01/02 06:44:20;;;;;;;2.38;0.82;;;6.40;99.90;;;;;;5100140;28;20583;-66
2024/01/02 06:46:46;;;;;;;2.05;0.70;;;6.50;99.90;;;;;;5091716;28;20043;-66
2024/01/02 06:49:12;;;;;;;1.70;0.90;;;6.40;99.90;;;;;;5096773;28;20040;-67
2024/01/02 06:51:38;;;;;;;1.80;0.88;;;6.40;99.90;;;;;;5080390;28;20048;-66
2024/01/02 06:54:03;;;;;;;3.42;1.00;;;6.40;99.90;;;;;;5128867;27;20059;-66
2024/01/02 06:56:29;;;;;;;1.83;0.90;;;6.40;99.90;;;;;;5101340;28;20123;-67
2024/01/02 06:58:55;;;;;;;3.17;0.73;;;6.50;99.90;;;;;;5083402;28;20044;-66
2024/01/02 07:01:21;;;;;;;1.65;0.80;;;6.40;99.90;;;;;;5101023;28;20043;-66
2024/01/02 07:03:47;;;;;;;2.75;0.90;;;6.60;99.90;;;;;;5095714;28;20100;-66
2024/01/02 07:06:13;;;;;;;2.72;1.00;;;6.40;99.90;;;;;;5093850;28;20055;-66
2024/01/02 07:08:38;;;;;;;1.27;0.73;;;6.40;99.90;;;;;;5099869;27;20127;-66
2024/01/02 07:11:04;;;;;;;3.05;1.00;;;6.50;99.90;;;;;;5096847;28;20745;-67
2024/01/02 07:13:30;;;;;;;3.75;1.00;;;6.50;99.90;;;;;;5090120;28;20044;-66
2024/01/02 07:15:56;;;;;;;2.08;0.90;;;6.40;99.90;;;;;;5099434;28;20858;-66
2024/01/02 07:18:22;;;;;;;1.73;0.88;;;6.40;99.90;;;;;;5101757;28;20140;-66
2024/01/02 07:20:47;;;;;;;3.00;0.90;;;6.50;99.90;;;;;;5100286;28;20047;-66
2024/01/02 07:23:13;;;;;;;1.17;0.80;;;6.50;99.90;;;;;;5097651;28;20048;-66
2024/01/02 07:25:39;;;;;;;1.42;0.90;;;6.50;99.90;;;;;;5100979;28;20043;-66
2024/01/02 07:28:05;;;;;;;1.70;1.00;;;6.50;99.90;;;;;;5128577;27;20062;-66
2024/01/02 07:30:31;;;;;;;2.45;1.30;;;6.50;99.90;;;;;;5100350;28;20048;-66
2024/01/02 07:32:57;;;;;;;2.55;1.10;;;6.50;99.90;;;;;;5103448;28;20048;-66
2024/01/02 07:35:23;;;;;;;1.83;1.20;;;6.60;99.90;;;;;;5087039;28;20051;-66
2024/01/02 07:37:48;;;;;;;3.13;1.10;;;6.60;99.90;;;;;;5094859;28;20059;-66
2024/01/02 07:40:15;;;;;;;2.40;1.35;;;6.60;99.90;;;;;;5092579;28;20188;-67
2024/01/02 07:42:41;;;;;;;2.13;1.20;;;6.60;99.90;;;;;;5102611;28;20050;-66
2024/01/02 07:45:08;;;;;;;3.67;1.50;;;6.60;99.90;;;;;;5101190;28;20047;-67
2024/01/02 07:47:34;;;;;;;3.05;1.40;;;6.40;99.90;;;;;;5121691;27;20485;-66
2024/01/02 07:50:01;;;;;;;2.40;1.40;;;6.70;99.90;;;;;;5099021;28;20111;-67
2024/01/02 07:52:26;;;;;;;2.75;1.60;;;7.20;99.90;;;;;;5096484;28;20474;-66
2024/01/02 07:54:52;;;;;;;4.22;2.00;;;6.70;99.90;;;;;;5094364;28;20131;-66
2024/01/02 07:57:18;;;;;;;4.30;2.20;;;6.80;99.90;;;;;;5097518;28;20591;-67
2024/01/02 07:59:43;;;;;;;3.92;2.03;;;6.80;99.90;;;;;;5098069;28;20088;-66
2024/01/02 08:02:09;;;;;;;7.57;2.15;;;6.80;99.90;;;;;;5096165;27;20115;-66
2024/01/02 08:04:35;;;;;;;4.68;2.30;;;6.90;99.90;;;;;;5097760;28;20047;-66
2024/01/02 08:07:01;;;;;;;4.90;2.35;;;7.20;99.90;;;;;;5096926;28;20066;-66
2024/01/02 08:09:27;;;;;;;9.23;2.95;;;6.90;99.90;;;;;;5093762;28;20035;-66
2024/01/02 08:11:54;;;;;;;5.78;2.60;;;6.90;99.90;;;;;;5101299;27;20512;-66
2024/01/02 08:14:19;;;;;;;7.82;2.63;;;7.00;99.90;;;;;;5100460;28;20044;-66
2024/01/02 08:16:45;;;;;;;6.05;2.90;;;7.10;99.90;;;;;;5105344;27;20054;-66
2024/01/02 08:19:11;;;;;;;7.95;3.00;;;7.10;99.90;;;;;;5133037;27;20062;-65
2024/01/02 08:21:36;;;;;;;8.13;3.17;;;7.20;99.90;;;;;;5100160;27;20051;-66
2024/01/02 08:24:03;;;;;;;9.25;3.50;;;7.20;99.90;;;;;;5103804;27;20120;-65
2024/01/02 08:26:28;;;;;;;9.00;3.17;;;7.20;99.90;;;;;;5098849;27;20036;-66
2024/01/02 08:28:58;;;;;;;12.65;3.95;;;7.20;99.90;;;;;;5125803;27;20775;-66
2024/01/02 08:31:24;;;;;;;10.02;3.58;;;7.20;99.90;;;;;;5097472;28;20036;-66
2024/01/02 08:33:50;;;;;;;13.30;3.20;;;7.30;99.90;;;;;;5060172;28;20140;-63
2024/01/02 08:36:17;;;;;;;14.77;3.38;;;7.40;99.90;;;;;;5079250;28;20513;-65
2024/01/02 08:38:42;;;;;;;19.58;3.95;;;7.50;99.90;;;;;;5094308;28;20040;-65
2024/01/02 08:41:08;;;;;;;18.35;3.80;;;7.60;99.90;;;;;;5092809;28;20575;-64
2024/01/02 08:43:35;;;;;;;10.52;3.03;;;7.60;99.90;;;;;;5075736;28;20039;-65
2024/01/02 08:46:01;;;;;;;18.95;3.45;;;7.70;99.90;;;;;;5092102;27;20046;-65
2024/01/02 08:48:26;;;;;;;18.83;3.17;;;7.80;99.90;;;;;;5074634;28;20047;-65
2024/01/02 08:50:52;;;;;;;22.42;3.20;;;7.90;99.90;;;;;;5094605;28;20039;-65
2024/01/02 08:53:21;;;;;;;18.70;2.58;;;7.90;99.90;;;;;;5097102;28;20131;-66
2024/01/02 08:55:49;;;;;;;28.38;3.83;;;8.20;99.90;;;;;;5089334;28;20059;-65
2024/01/02 08:58:15;;;;;;;18.20;2.20;;;8.10;99.90;;;;;;5086807;28;20047;-65
2024/01/02 09:00:41;;;;;;;18.83;2.47;;;8.10;99.90;;;;;;5088007;28;20239;-64
2024/01/02 09:03:09;;;;;;;17.70;3.13;;;8.10;99.90;;;;;;5088051;28;20409;-65
2024/01/02 09:05:35;;;;;;;14.55;2.00;;;8.20;99.90;;;;;;5089317;28;20046;-64
2024/01/02 09:08:03;;;;;;;25.15;2.83;;;8.20;99.90;;;;;;5094992;28;20062;-65
2024/01/02 09:10:29;;;;;;;20.80;2.63;;;8.30;99.90;;;;;;5122967;27;20059;-65
2024/01/02 09:12:55;;;;;;;22.13;2.65;;;8.30;99.90;;;;;;5124510;27;21983;-65
2024/01/02 09:15:21;;;;;;;23.02;2.28;;;8.30;99.90;;;;;;5101618;28;20082;-66
2024/01/02 09:17:47;;;;;;;15.70;2.20;;;8.40;99.90;;;;;;5124943;27;20048;-64
2024/01/02 09:20:12;;;;;;;17.45;2.83;;;8.40;99.90;;;;;;5099496;28;20052;-65
2024/01/02 09:22:38;;;;;;;24.17;2.83;;;8.50;99.90;;;;;;5097350;27;20420;-65
2024/01/02 09:25:05;;;;;;;16.17;2.28;;;8.50;99.90;;;;;;5097542;28;20123;-65
2024/01/02 09:27:34;;;;;;;20.67;2.47;;;8.50;99.90;;;;;;5096218;27;20051;-67
2024/01/02 09:29:59;;;;;;;20.08;2.65;;;8.60;99.90;;;;;;5095609;27;20055;-65
2024/01/02 09:32:26;;;;;;;31.13;4.05;;;8.60;99.90;;;;;;5101772;28;20043;-65
2024/01/02 09:34:52;;;;;;;21.52;2.40;;;8.70;99.90;;;;;;5096714;27;20510;-72
2024/01/02 09:37:18;;;;;;;23.67;2.50;;;8.70;99.90;;;;;;5094267;28;20036;-64
2024/01/02 09:39:44;;;;;;;30.33;2.80;;;8.80;99.90;;;;;;5094455;28;20510;-65
2024/01/02 09:42:22;;;;;;;18.17;2.40;;;8.80;99.90;;;;;;5093297;27;20056;-65
2024/01/02 09:45:13;;;;;;;22.85;2.50;;;8.80;99.90;;;;;;5085085;28;20047;-65
2024/01/02 09:48:27;;;;;;;25.52;2.65;;;8.90;99.90;;;;;;5093781;28;20043;-64
2024/01/02 09:51:25;;;;;;;20.45;2.80;;;8.90;99.90;;;;;;5075640;27;20050;-70
2024/01/02 09:54:07;;;;;;;20.42;2.15;;;9.00;99.90;;;;;;5099102;28;20533;-66
2024/01/02 09:56:46;;;;;;;27.88;3.08;;;9.00;99.90;;;;;;5126120;27;20135;-64
2024/01/02 09:59:32;;;;;;;23.55;2.22;;;9.00;99.90;;;;;;5098156;27;20047;-64
2024/01/02 10:02:34;;;;;;;24.52;2.75;;;9.00;99.90;;;;;;5101942;27;20432;-65
2024/01/02 10:05:08;;;;;;;26.27;3.15;;;9.10;99.90;;;;;;5107460;27;20050;-65
2024/01/02 10:07:58;;;;;;;27.15;3.15;;;9.10;99.90;;;;;;5084975;27;20061;-65
2024/01/02 10:10:51;;;;;;;28.55;4.38;;;9.10;99.90;;;;;;5099252;27;20432;-67
2024/01/02 10:13:25;;;;;;;24.83;2.80;;;9.20;99.90;;;;;;5095015;27;20058;-68
2024/01/02 10:15:54;;;;;;;25.42;2.70;;;9.20;99.90;;;;;;5123477;27;20110;-71
2024/01/02 10:18:40;;;;;;;25.30;3.72;;;9.30;99.90;;;;;;5122399;27;20048;-68
2024/01/02 10:21:29;;;;;;;28.50;4.20;;;9.30;99.90;;;;;;5100660;27;20094;-68
2024/01/02 10:24:32;;;;;;;25.90;3.17;;;9.30;99.90;;;;;;5098931;27;20051;-68
2024/01/02 10:27:30;;;;;;;28.17;3.22;;;9.30;99.90;;;;;;5091643;28;20113;-68
2024/01/02 10:30:06;;;;;;;22.63;3.60;;;9.30;99.90;;;;;;5088430;27;20062;-68
2024/01/02 10:33:18;;;;;;;22.73;3.15;;;9.40;99.90;;;;;;5094535;27;20500;-68
2024/01/02 10:35:53;;;;;;;26.45;2.78;;;9.40;99.90;;;;;;5019603;28;20084;-66
2024/01/02 10:38:22;;;;;;;20.52;2.25;;;9.40;99.90;;;;;;5030152;28;20037;-66
2024/01/02 10:40:56;;;;;;;28.85;2.95;;;9.40;99.90;;;;;;5067800;27;20111;-68
2024/01/02 10:43:30;;;;;;;17.85;2.72;;;9.40;99.90;;;;;;5097331;28;20051;-67
2024/01/02 10:46:17;;;;;;;29.23;3.53;;;9.50;99.90;;;;;;5104160;27;20116;-67
2024/01/02 10:49:00;;;;;;;30.25;3.65;;;9.50;99.90;;;;;;5099208;27;21885;-67
2024/01/02 10:51:39;;;;;;;20.73;2.67;;;9.50;99.90;;;;;;5087425;28;20144;-67
2024/01/02 10:54:40;;;;;;;25.17;3.17;;;9.50;99.90;;;;;;5087607;28;20101;-68
2024/01/02 10:57:12;;;;;;;29.25;2.95;;;9.50;99.90;;;;;;5040904;28;20408;-67
2024/01/02 11:00:08;;;;;;;19.58;2.47;;;9.50;99.90;;;;;;5104091;27;20050;-68
2024/01/02 11:02:57;;;;;;;28.70;3.10;;;9.60;99.90;;;;;;5089209;27;20055;-67
2024/01/02 11:05:26;;;;;;;24.55;3.65;;;9.60;99.90;;;;;;5074962;28;20048;-66
2024/01/02 11:08:03;;;;;;;28.23;2.88;;;9.60;99.90;;;;;;5086771;28;20043;-66
2024/01/02 11:10:35;;;;;;;29.65;3.63;;;9.60;99.90;;;;;;5088462;28;20055;-65
2024/01/02 11:13:03;;;;;;;26.92;3.30;;;9.60;99.90;;;;;;5121907;27;20056;-65
2024/01/02 11:15:35;;;;;;;25.77;3.17;;;9.60;99.90;;;;;;5105035;28;20134;-65
2024/01/02 11:18:06;;;;;;;33.38;3.47;;;9.60;99.90;;;;;;5091938;28;20044;-65
2024/01/02 11:21:06;;;;;;;20.25;2.97;;;9.70;99.90;;;;;;5085478;28;20044;-65
2024/01/02 11:23:38;;;;;;;30.75;3.45;;;9.70;99.90;;;;;;5094726;28;20047;-67
2024/01/02 11:26:14;;;;;;;27.88;3.65;;;9.60;99.90;;;;;;5082282;28;20058;-67
2024/01/02 11:28:42;;;;;;;23.70;3.17;;;9.60;99.90;;;;;;5088250;28;20054;-66
2024/01/02 11:31:13;;;;;;;26.58;4.25;;;9.70;99.90;;;;;;5091211;28;20055;-66
2024/01/02 11:33:54;;;;;;;26.60;3.65;;;9.70;99.90;;;;;;5080018;28;20130;-66
2024/01/02 11:36:48;;;;;;;24.92;3.65;;;9.70;99.90;;;;;;5097900;27;20051;-67
2024/01/02 11:39:46;;;;;;;21.73;3.72;;;9.70;99.90;;;;;;5089808;28;20504;-72
2024/01/02 11:42:33;;;;;;;20.08;3.03;;;9.70;99.90;;;;;;5067281;28;20504;-66
2024/01/02 11:45:08;;;;;;;20.70;2.75;;;9.80;99.90;;;;;;5091565;28;20039;-68
2024/01/02 11:47:59;;;;;;;26.10;3.13;;;9.80;99.90;;;;;;5099147;27;20675;-67
2024/01/02 11:50:36;;;;;;;24.35;3.83;;;9.80;99.90;;;;;;5093253;28;20052;-66
2024/01/02 11:53:03;;;;;;;30.20;4.45;;;9.80;99.90;;;;;;5082234;28;20043;-67
2024/01/02 11:56:03;;;;;;;31.08;4.03;;;9.80;99.90;;;;;;5118913;27;20056;-68
2024/01/02 11:58:42;;;;;;;36.80;6.72;;;9.80;99.90;;;;;;5114085;27;20435;-67
2024/01/02 12:01:45;;;;;;;34.15;7.10;;;9.90;99.90;;;;;;5083882;28;20067;-69
2024/01/02 12:04:23;;;;;;;39.20;9.68;;;9.80;99.90;;;;;;5090020;28;20055;-68
2024/01/02 12:06:54;;;;;;;45.38;12.38;;;9.90;99.90;;;;;;5119480;27;20044;-68
2024/01/02 12:09:23;;;;;;;57.05;13.77;;;9.80;99.90;;;;;;5075141;28;20048;-67
2024/01/02 12:12:26;;;;;;;51.22;13.32;;;9.90;99.90;;;;;;5081290;28;20142;-68
2024/01/02 12:15:15;;;;;;;46.22;12.82;;;9.90;99.90;;;;;;5087334;28;20048;-67
2024/01/02 12:17:58;;;;;;;51.83;12.32;;;9.90;99.90;;;;;;5083123;28;20086;-67
2024/01/02 12:20:33;;;;;;;53.38;12.00;;;9.90;99.90;;;;;;5082648;28;20491;-69
2024/01/02 12:22:59;;;;;;;56.65;12.10;;;9.90;99.90;;;;;;5081759;28;20055;-68
2024/01/02 12:25:26;;;;;;;55.42;14.30;;;9.90;99.90;;;;;;5073936;28;20051;-68
2024/01/02 12:27:53;;;;;;;52.50;12.60;;;9.90;99.90;;;;;;5089781;28;20503;-68
2024/01/02 12:30:32;;;;;;;46.42;12.15;;;9.90;99.90;;;;;;5089848;28;20047;-67
2024/01/02 12:33:10;;;;;;;50.95;10.48;;;10.00;99.90;;;;;;5076849;28;20053;-66
2024/01/02 12:35:42;;;;;;;54.55;10.52;;;9.90;99.90;;;;;;5115943;27;20075;-66
2024/01/02 12:38:18;;;;;;;46.72;8.70;;;10.10;99.90;;;;;;5092988;28;20390;-68
2024/01/02 12:40:48;;;;;;;47.85;9.18;;;10.00;99.90;;;;;;5081747;27;20044;-67
2024/01/02 12:43:22;;;;;;;41.13;7.57;;;10.00;99.90;;;;;;5118562;27;20044;-68
2024/01/02 12:46:13;;;;;;;42.25;7.97;;;10.00;99.90;;;;;;5116122;27;20823;-67
2024/01/02 12:48:56;;;;;;;40.25;6.50;;;10.00;99.90;;;;;;5087860;28;20579;-68
2024/01/02 12:51:29;;;;;;;37.53;6.47;;;10.00;99.90;;;;;;5081154;28;20055;-67
2024/01/02 12:53:55;;;;;;;36.08;5.45;;;10.10;99.90;;;;;;5090918;28;20047;-68
2024/01/02 12:56:24;;;;;;;36.50;5.32;;;10.00;99.90;;;;;;5127140;27;20036;-68
2024/01/02 12:58:52;;;;;;;39.60;6.10;;;10.00;99.90;;;;;;5074742;28;20102;-68
2024/01/02 13:01:19;;;;;;;35.25;5.22;;;10.00;99.90;;;;;;5085771;28;20055;-72